createdAt,value
2023-05-11T00:02:12.553Z,100694.13
2023-05-11T00:04:57.837Z,100695.88
2023-05-11T00:07:43.038Z,100686.31
2023-05-11T00:10:29.367Z,100689.75
2023-05-11T00:13:14.744Z,100684.53
2023-05-11T00:15:59.780Z,100679.22
2023-05-11T00:18:45.134Z,100686.16
2023-05-11T00:21:30.731Z,100685.28
2023-05-11T00:24:16.061Z,100685.28
2023-05-11T00:27:00.997Z,100682.69
2023-05-11T00:29:46.401Z,100679.25
2023-05-11T00:32:31.750Z,100682.75
2023-05-11T00:35:17.122Z,100684.50
2023-05-11T00:38:02.184Z,100676.66
2023-05-11T00:40:48.974Z,100678.38
2023-05-11T00:43:34.319Z,100682.69
2023-05-11T00:46:20.512Z,100675.84
2023-05-11T00:49:05.850Z,100674.94
2023-05-11T00:51:51.305Z,100682.72
2023-05-11T00:54:36.685Z,100682.78
2023-05-11T00:57:21.759Z,100687.13
2023-05-11T01:00:07.697Z,100679.31
2023-05-11T01:02:53.750Z,100684.53
2023-05-11T01:05:46.999Z,100687.19
2023-05-11T01:08:44.830Z,100681.00
2023-05-11T01:11:51.321Z,100683.53
2023-05-11T01:14:45.062Z,100680.91
2023-05-11T01:17:54.847Z,100680.84
2023-05-11T01:20:44.120Z,100686.13
2023-05-11T01:23:54.097Z,100685.28
2023-05-11T01:27:05.838Z,100688.75
2023-05-11T01:30:29.155Z,100692.16
2023-05-11T01:33:16.181Z,100695.72
2023-05-11T01:36:05.287Z,100693.13
2023-05-11T01:38:51.640Z,100700.91
2023-05-11T01:41:40.233Z,100705.16
2023-05-11T01:44:30.440Z,100698.25
2023-05-11T01:47:17.084Z,100698.28
2023-05-11T01:50:06.257Z,100710.44
2023-05-11T01:52:52.084Z,100706.91
2023-05-11T01:55:39.789Z,100704.31
2023-05-11T01:58:27.155Z,100707.81
2023-05-11T02:01:15.621Z,100707.81
2023-05-11T02:04:03.471Z,100713.00
2023-05-11T02:06:50.887Z,100717.41
2023-05-11T02:09:38.020Z,100720.91
2023-05-11T02:12:25.085Z,100713.97
2023-05-11T02:15:11.602Z,100710.50
2023-05-11T02:17:57.609Z,100716.53
2023-05-11T02:20:46.049Z,100715.59
2023-05-11T02:23:33.421Z,100711.28
2023-05-11T02:26:18.484Z,100709.47
2023-05-11T02:29:03.855Z,100709.50
2023-05-11T02:31:52.734Z,100716.53
2023-05-11T02:34:43.620Z,100720.84
2023-05-11T02:37:30.855Z,100717.31
2023-05-11T02:40:22.618Z,100707.63
2023-05-11T02:43:11.227Z,100709.31
2023-05-11T02:46:01.925Z,100711.03
2023-05-11T02:48:51.862Z,100714.50
2023-05-11T02:51:41.173Z,100714.53
2023-05-11T02:54:27.012Z,100722.25
2023-05-11T02:57:12.756Z,100727.31
2023-05-11T02:59:58.411Z,100719.47
2023-05-11T03:02:43.455Z,100721.28
2023-05-11T03:05:28.811Z,100723.88
2023-05-11T03:08:14.060Z,100718.72
2023-05-11T03:10:59.255Z,100724.84
2023-05-11T03:13:45.626Z,100728.28
2023-05-11T03:16:32.233Z,100736.81
2023-05-11T03:19:17.950Z,100735.94
2023-05-11T03:22:04.336Z,100735.09
2023-05-11T03:24:51.274Z,100727.28
2023-05-11T03:27:37.026Z,100726.47
2023-05-11T03:30:23.266Z,100723.75
2023-05-11T03:33:09.249Z,100737.69
2023-05-11T03:35:55.186Z,100729.03
2023-05-11T03:38:40.776Z,100735.19
2023-05-11T03:41:27.933Z,100744.69
2023-05-11T03:44:14.797Z,100740.25
2023-05-11T03:47:00.931Z,100741.94
2023-05-11T03:49:46.517Z,100741.09
2023-05-11T03:52:31.962Z,100735.91
2023-05-11T03:55:17.320Z,100732.41
2023-05-11T03:58:06.733Z,100738.47
2023-05-11T04:00:52.450Z,100740.16
2023-05-11T04:03:52.607Z,100748.22
2023-05-11T04:06:38.282Z,100739.50
2023-05-11T04:09:23.634Z,100747.16
2023-05-11T04:12:08.589Z,100746.28
2023-05-11T04:14:53.997Z,100746.28
2023-05-11T04:17:39.252Z,100745.44
2023-05-11T04:20:24.533Z,100748.94
2023-05-11T04:23:10.518Z,100750.63
2023-05-11T04:25:56.282Z,100754.94
2023-05-11T04:28:41.385Z,100754.19
2023-05-11T04:31:26.869Z,100754.31
2023-05-11T04:34:12.030Z,100755.22
2023-05-11T04:36:57.047Z,100766.53
2023-05-11T04:39:41.909Z,100763.94
2023-05-11T04:42:26.712Z,100765.56
2023-05-11T04:45:11.808Z,100755.31
2023-05-11T04:47:56.734Z,100763.97
2023-05-11T04:50:41.677Z,100767.44
2023-05-11T04:53:26.494Z,100764.81
2023-05-11T04:56:11.826Z,100760.47
2023-05-11T04:58:57.030Z,100759.59
2023-05-11T05:01:42.124Z,100763.19
2023-05-11T05:04:27.421Z,100770.16
2023-05-11T05:07:12.962Z,100766.72
2023-05-11T05:09:58.227Z,100770.22
2023-05-11T05:12:43.098Z,100764.16
2023-05-11T05:15:28.387Z,100760.72
2023-05-11T05:18:14.017Z,100770.34
2023-05-11T05:20:59.342Z,100767.72
2023-05-11T05:23:44.392Z,100768.63
2023-05-11T05:26:29.853Z,100770.41
2023-05-11T05:29:15.221Z,100770.38
2023-05-11T05:32:00.016Z,100771.94
2023-05-11T05:34:45.476Z,100766.72
2023-05-11T05:37:30.749Z,100776.31
2023-05-11T05:40:15.581Z,100771.13
2023-05-11T05:43:00.949Z,100770.31
2023-05-11T05:45:45.787Z,100772.88
2023-05-11T05:48:31.130Z,100770.22
2023-05-11T05:51:16.487Z,100773.72
2023-05-11T05:54:01.889Z,100775.50
2023-05-11T05:56:47.322Z,100779.84
2023-05-11T05:59:32.596Z,100778.16
2023-05-11T06:02:17.524Z,100771.16
2023-05-11T06:05:02.365Z,100775.50
2023-05-11T06:07:58.131Z,100775.56
2023-05-11T06:10:52.956Z,100785.13
2023-05-11T06:13:37.828Z,100776.53
2023-05-11T06:16:22.562Z,100773.03
2023-05-11T06:19:08.309Z,100768.72
2023-05-11T06:21:53.507Z,100764.47
2023-05-11T06:24:38.509Z,100767.13
2023-05-11T06:27:23.645Z,100767.13
2023-05-11T06:30:09.546Z,100767.13
2023-05-11T06:32:55.068Z,100767.16
2023-05-11T06:35:40.253Z,100762.78
2023-05-11T06:38:25.473Z,100751.56
2023-05-11T06:41:10.435Z,100753.25
2023-05-11T06:43:55.846Z,100754.16
2023-05-11T06:46:41.322Z,100748.16
2023-05-11T06:49:26.866Z,100749.91
2023-05-11T06:52:12.088Z,100749.94
2023-05-11T06:54:57.543Z,100750.81
2023-05-11T06:57:42.868Z,100747.25
2023-05-11T07:00:28.252Z,100742.09
2023-05-11T07:03:13.241Z,100743.81
2023-05-11T07:05:58.373Z,100735.16
2023-05-11T07:08:43.800Z,100735.19
2023-05-11T07:11:30.899Z,100739.56
2023-05-11T07:14:16.060Z,100734.34
2023-05-11T07:17:01.059Z,100732.59
2023-05-11T07:19:46.338Z,100730.88
2023-05-11T07:22:31.174Z,100732.59
2023-05-11T07:25:15.879Z,100734.38
2023-05-11T07:28:01.295Z,100738.72
2023-05-11T07:30:47.260Z,100729.19
2023-05-11T07:33:32.336Z,100720.53
2023-05-11T07:36:17.968Z,100724.03
2023-05-11T07:39:03.396Z,100722.28
2023-05-11T07:41:48.529Z,100721.44
2023-05-11T07:44:33.421Z,100719.69
2023-05-11T07:47:18.307Z,100717.97
2023-05-11T07:50:03.972Z,100715.38
2023-05-11T07:52:49.510Z,100720.59
2023-05-11T07:55:34.578Z,100725.78
2023-05-11T07:58:19.894Z,100726.66
2023-05-11T08:01:05.331Z,100717.13
2023-05-11T08:03:50.814Z,100716.25
2023-05-11T08:06:35.849Z,100724.09
2023-05-11T08:09:20.902Z,100718.94
2023-05-11T08:12:06.392Z,100722.38
2023-05-11T08:14:51.442Z,100721.53
2023-05-11T08:17:36.950Z,100714.56
2023-05-11T08:20:22.364Z,100723.28
2023-05-11T08:23:08.865Z,100716.31
2023-05-11T08:25:55.392Z,100711.97
2023-05-11T08:28:40.434Z,100713.72
2023-05-11T08:31:25.231Z,100719.78
2023-05-11T08:34:18.676Z,100726.72
2023-05-11T08:37:04.979Z,100727.56
2023-05-11T08:39:50.502Z,100725.84
2023-05-11T08:42:39.861Z,100711.97
2023-05-11T08:45:25.871Z,100705.91
2023-05-11T08:48:11.503Z,100706.78
2023-05-11T08:50:56.482Z,100717.19
2023-05-11T08:53:41.732Z,100718.91
2023-05-11T08:56:29.650Z,100709.34
2023-05-11T08:59:15.425Z,100718.00
2023-05-11T09:02:00.976Z,100723.19
2023-05-11T09:04:48.311Z,100715.38
2023-05-11T09:07:38.730Z,100722.31
2023-05-11T09:10:24.213Z,100724.00
2023-05-11T09:13:09.729Z,100706.63
2023-05-11T09:15:54.797Z,100704.91
2023-05-11T09:18:53.656Z,100706.66
2023-05-11T09:21:39.024Z,100704.06
2023-05-11T09:24:24.734Z,100710.13
2023-05-11T09:27:10.273Z,100712.69
2023-05-11T09:29:55.537Z,100715.31
2023-05-11T09:32:51.200Z,100711.78
2023-05-11T09:35:36.321Z,100708.34
2023-05-11T09:38:25.114Z,100710.97
2023-05-11T09:41:10.876Z,100713.59
2023-05-11T09:44:11.103Z,100713.56
2023-05-11T09:47:14.016Z,100707.47
2023-05-11T09:49:59.258Z,100707.50
2023-05-11T09:52:50.902Z,100721.38
2023-05-11T09:55:35.983Z,100723.97
2023-05-11T09:58:21.753Z,100727.47
2023-05-11T10:01:07.138Z,100719.63
2023-05-11T10:03:56.369Z,100716.97
2023-05-11T10:06:52.314Z,100710.88
2023-05-11T10:09:38.245Z,100696.06
2023-05-11T10:12:25.580Z,100705.66
2023-05-11T10:15:11.302Z,100697.78
2023-05-11T10:17:58.879Z,100690.81
2023-05-11T10:20:47.624Z,100687.41
2023-05-11T10:23:33.253Z,100684.75
2023-05-11T10:26:19.103Z,100683.88
2023-05-11T10:29:05.015Z,100702.13
2023-05-11T10:31:51.320Z,100714.28
2023-05-11T10:34:36.596Z,100700.34
2023-05-11T10:37:22.445Z,100712.50
2023-05-11T10:40:09.118Z,100707.28
2023-05-11T10:43:22.354Z,100707.31
2023-05-11T10:46:25.062Z,100710.00
2023-05-11T10:49:47.818Z,100717.03
2023-05-11T10:53:04.514Z,100727.56
2023-05-11T10:55:56.002Z,100736.28
2023-05-11T10:58:59.223Z,100744.97
2023-05-11T11:01:46.386Z,100749.28
2023-05-11T11:04:49.598Z,100753.66
2023-05-11T11:08:00.985Z,100753.66
2023-05-11T11:10:45.868Z,100746.69
2023-05-11T11:13:57.857Z,100753.63
2023-05-11T11:17:14.426Z,100763.19
2023-05-11T11:20:04.126Z,100762.31
2023-05-11T11:22:49.171Z,100759.72
2023-05-11T11:25:51.944Z,100758.84
2023-05-11T11:28:55.618Z,100757.09
2023-05-11T11:31:41.473Z,100765.78
2023-05-11T11:34:29.605Z,100753.53
2023-05-11T11:37:16.365Z,100759.69
2023-05-11T11:40:09.403Z,100760.59
2023-05-11T11:43:10.626Z,100761.44
2023-05-11T11:46:01.515Z,100760.59
2023-05-11T11:48:46.831Z,100753.66
2023-05-11T11:51:35.955Z,100758.88
2023-05-11T11:54:37.231Z,100760.59
2023-05-11T11:57:34.787Z,100756.25
2023-05-11T12:00:20.964Z,100757.09
2023-05-11T12:03:07.683Z,100764.94
2023-05-11T12:05:58.373Z,100764.94
2023-05-11T12:08:43.513Z,100757.97
2023-05-11T12:11:29.595Z,100755.38
2023-05-11T12:14:16.490Z,100757.09
2023-05-11T12:17:03.651Z,100749.28
2023-05-11T12:19:48.699Z,100752.78
2023-05-11T12:22:36.576Z,100747.56
2023-05-11T12:25:22.174Z,100754.50
2023-05-11T12:28:07.495Z,100752.78
2023-05-11T12:30:58.474Z,100761.47
2023-05-11T12:33:50.156Z,100748.44
2023-05-11T12:36:36.205Z,100754.53
2023-05-11T12:39:26.172Z,100754.47
2023-05-11T12:42:18.589Z,100748.38
2023-05-11T12:45:05.545Z,100739.75
2023-05-11T12:47:52.627Z,100732.81
2023-05-11T12:50:42.788Z,100731.91
2023-05-11T12:53:35.572Z,100738.00
2023-05-11T12:56:20.894Z,100735.41
2023-05-11T12:59:30.420Z,100730.22
2023-05-11T13:02:20.620Z,100726.72
2023-05-11T13:05:15.508Z,100726.75
2023-05-11T13:08:05.194Z,100724.13
2023-05-11T13:10:50.527Z,100720.66
2023-05-11T13:13:35.900Z,100725.00
2023-05-11T13:16:25.382Z,100738.88
2023-05-11T13:19:10.422Z,100735.44
2023-05-11T13:21:55.977Z,100728.47
2023-05-11T13:24:41.321Z,100718.06
2023-05-11T13:27:26.562Z,100729.34
2023-05-11T13:30:12.153Z,100731.06
2023-05-11T13:32:57.447Z,100724.13
2023-05-11T13:35:44.095Z,100723.25
2023-05-11T13:38:29.606Z,100718.03
2023-05-11T13:41:15.066Z,100726.72
2023-05-11T13:44:00.459Z,100731.94
2023-05-11T13:46:45.629Z,100731.06
2023-05-11T13:49:31.110Z,100729.34
2023-05-11T13:52:16.664Z,100720.63
2023-05-11T13:55:01.902Z,100711.09
2023-05-11T13:57:46.897Z,100717.16
2023-05-11T14:00:32.395Z,100716.31
2023-05-11T14:03:17.634Z,100718.06
2023-05-11T14:06:03.058Z,100719.78
2023-05-11T14:08:48.350Z,100712.84
2023-05-11T14:11:33.876Z,100716.31
2023-05-11T14:14:19.562Z,100712.81
2023-05-11T14:17:05.785Z,100714.56
2023-05-11T14:19:50.864Z,100705.84
2023-05-11T14:22:35.812Z,100705.00
2023-05-11T14:25:21.356Z,100711.06
2023-05-11T14:28:06.670Z,100704.16
2023-05-11T14:30:51.606Z,100705.00
2023-05-11T14:33:36.855Z,100710.19
2023-05-11T14:36:22.701Z,100716.28
2023-05-11T14:39:07.910Z,100707.56
2023-05-11T14:41:53.171Z,100700.63
2023-05-11T14:44:38.093Z,100699.75
2023-05-11T14:47:23.085Z,100694.56
2023-05-11T14:50:09.393Z,100697.16
2023-05-11T14:52:54.900Z,100697.13
2023-05-11T14:55:40.240Z,100690.16
2023-05-11T14:58:25.601Z,100697.97
2023-05-11T15:01:10.455Z,100697.97
2023-05-11T15:03:56.000Z,100701.47
2023-05-11T15:06:41.194Z,100692.72
2023-05-11T15:09:26.602Z,100697.97
2023-05-11T15:12:13.188Z,100696.22
2023-05-11T15:14:58.370Z,100701.44
2023-05-11T15:17:43.456Z,100686.66
2023-05-11T15:20:28.970Z,100692.75
2023-05-11T15:23:14.147Z,100690.16
2023-05-11T15:26:00.812Z,100694.50
2023-05-11T15:28:45.950Z,100697.91
2023-05-11T15:31:31.002Z,100696.19
2023-05-11T15:34:16.145Z,100694.50
2023-05-11T15:37:01.018Z,100701.47
2023-05-11T15:39:53.599Z,100707.56
2023-05-11T15:42:39.059Z,100702.28
2023-05-11T15:45:25.234Z,100702.31
2023-05-11T15:48:10.665Z,100698.88
2023-05-11T15:50:55.671Z,100703.22
2023-05-11T15:53:40.504Z,100694.50
2023-05-11T15:56:25.424Z,100697.06
2023-05-11T15:59:10.571Z,100697.06
2023-05-11T16:01:55.917Z,100699.66
2023-05-11T16:04:41.367Z,100704.06
2023-05-11T16:07:27.003Z,100701.50
2023-05-11T16:10:12.022Z,100696.28
2023-05-11T16:12:58.801Z,100703.25
2023-05-11T16:15:44.233Z,100705.00
2023-05-11T16:18:29.714Z,100706.72
2023-05-11T16:21:15.097Z,100703.25
2023-05-11T16:24:00.538Z,100707.59
2023-05-11T16:26:45.967Z,100709.34
2023-05-11T16:29:31.363Z,100711.06
2023-05-11T16:32:16.696Z,100705.84
2023-05-11T16:35:01.634Z,100712.81
2023-05-11T16:37:47.199Z,100711.97
2023-05-11T16:40:32.553Z,100715.44
2023-05-11T16:43:17.837Z,100716.31
2023-05-11T16:46:03.584Z,100711.97
2023-05-11T16:48:48.836Z,100709.38
2023-05-11T16:51:33.973Z,100711.09
2023-05-11T16:54:20.161Z,100707.63
2023-05-11T16:57:05.735Z,100705.88
2023-05-11T16:59:51.409Z,100703.28
2023-05-11T17:02:36.658Z,100705.91
2023-05-11T17:05:22.418Z,100705.91
2023-05-11T17:08:08.244Z,100698.97
2023-05-11T17:10:53.323Z,100714.56
2023-05-11T17:13:38.908Z,100715.44
2023-05-11T17:16:24.234Z,100711.09
2023-05-11T17:19:09.712Z,100712.81
2023-05-11T17:21:55.056Z,100719.78
2023-05-11T17:24:40.229Z,100713.72
2023-05-11T17:27:25.976Z,100719.78
2023-05-11T17:30:12.429Z,100718.84
2023-05-11T17:32:57.826Z,100722.31
2023-05-11T17:35:43.342Z,100722.34
2023-05-11T17:38:28.461Z,100733.66
2023-05-11T17:41:13.889Z,100725.88
2023-05-11T17:43:59.395Z,100724.13
2023-05-11T17:46:44.638Z,100732.78
2023-05-11T17:49:30.051Z,100729.34
2023-05-11T17:52:15.850Z,100731.91
2023-05-11T17:55:00.899Z,100717.16
2023-05-11T17:57:46.215Z,100730.09
2023-05-11T18:00:31.556Z,100727.47
2023-05-11T18:03:17.151Z,100732.63
2023-05-11T18:06:02.499Z,100727.50
2023-05-11T18:08:47.707Z,100732.69
2023-05-11T18:11:33.063Z,100731.84
2023-05-11T18:14:17.984Z,100735.31
2023-05-11T18:17:03.451Z,100736.19
2023-05-11T18:19:48.740Z,100737.03
2023-05-11T18:22:34.259Z,100735.31
2023-05-11T18:25:19.394Z,100744.00
2023-05-11T18:28:04.376Z,100741.38
2023-05-11T18:30:49.560Z,100737.91
2023-05-11T18:33:34.477Z,100739.63
2023-05-11T18:36:20.249Z,100741.34
2023-05-11T18:39:05.216Z,100741.38
2023-05-11T18:41:50.548Z,100741.31
2023-05-11T18:44:35.914Z,100746.50
2023-05-11T18:47:20.889Z,100759.53
2023-05-11T18:50:06.657Z,100752.56
2023-05-11T18:52:52.339Z,100756.03
2023-05-11T18:55:51.886Z,100756.03
2023-05-11T18:58:38.414Z,100762.97
2023-05-11T19:01:30.302Z,100754.31
2023-05-11T19:04:18.823Z,100768.19
2023-05-11T19:07:04.198Z,100763.84
2023-05-11T19:09:49.634Z,100752.56
2023-05-11T19:12:34.971Z,100764.72
2023-05-11T19:15:19.979Z,100761.22
2023-05-11T19:18:05.697Z,100757.81
2023-05-11T19:20:52.148Z,100760.38
2023-05-11T19:23:37.189Z,100759.47
2023-05-11T19:26:22.336Z,100756.88
2023-05-11T19:29:07.971Z,100756.91
2023-05-11T19:31:53.496Z,100749.09
2023-05-11T19:34:38.739Z,100752.59
2023-05-11T19:37:24.070Z,100755.16
2023-05-11T19:40:37.287Z,100753.44
2023-05-11T19:43:15.005Z,100762.97
2023-05-11T19:46:03.273Z,100751.69
2023-05-11T19:48:48.353Z,100756.91
2023-05-11T19:51:33.733Z,100757.75
2023-05-11T19:54:18.932Z,100767.34
2023-05-11T19:57:04.226Z,100758.63
2023-05-11T19:59:49.414Z,100764.69
2023-05-11T20:02:35.289Z,100764.72
2023-05-11T20:05:20.774Z,100773.44
2023-05-11T20:08:05.872Z,100764.72
2023-05-11T20:10:51.185Z,100766.44
2023-05-11T20:13:36.585Z,100769.88
2023-05-11T20:16:22.083Z,100775.06
2023-05-11T20:19:07.400Z,100782.94
2023-05-11T20:21:52.781Z,100782.00
2023-05-11T20:24:37.553Z,100780.28
2023-05-11T20:27:22.679Z,100782.88
2023-05-11T20:30:08.851Z,100792.41
2023-05-11T20:35:42.600Z,100783.72
2023-05-11T20:38:27.652Z,100785.44
2023-05-11T20:41:12.655Z,100783.66
2023-05-11T20:43:57.812Z,100791.50
2023-05-11T20:46:43.224Z,100780.22
2023-05-11T20:49:38.082Z,100783.72
2023-05-11T20:52:23.749Z,100779.34
2023-05-11T20:55:09.139Z,100792.34
2023-05-11T20:57:54.030Z,100788.81
2023-05-11T21:00:39.762Z,100785.38
2023-05-11T21:03:26.095Z,100792.34
2023-05-11T21:06:11.222Z,100785.38
2023-05-11T21:08:56.030Z,100792.34
2023-05-11T21:11:41.436Z,100798.41
2023-05-11T21:14:26.811Z,100791.41
2023-05-11T21:17:11.966Z,100792.34
2023-05-11T21:19:57.305Z,100804.41
2023-05-11T21:22:42.511Z,100801.84
2023-05-11T21:25:27.529Z,100795.78
2023-05-11T21:28:12.667Z,100794.09
2023-05-11T21:30:58.127Z,100798.38
2023-05-11T21:33:43.525Z,100799.28
2023-05-11T21:36:28.403Z,100795.72
2023-05-11T21:39:13.453Z,100800.09
2023-05-11T21:41:58.456Z,100788.88
2023-05-11T21:44:43.839Z,100796.63
2023-05-11T21:47:28.978Z,100797.50
2023-05-11T21:50:14.355Z,100801.88
2023-05-11T21:52:59.627Z,100794.88
2023-05-11T21:55:44.378Z,100797.50
2023-05-11T21:58:29.795Z,100797.44
2023-05-11T22:01:14.625Z,100800.94
2023-05-11T22:04:00.175Z,100813.09
2023-05-11T22:06:45.329Z,100805.34
2023-05-11T22:09:30.078Z,100815.69
2023-05-11T22:12:14.987Z,100812.22
2023-05-11T22:15:00.454Z,100810.53
2023-05-11T22:17:45.798Z,100813.06
2023-05-11T22:20:30.963Z,100812.25
2023-05-11T22:23:15.942Z,100808.59
2023-05-11T22:26:01.171Z,100807.78
2023-05-11T22:28:46.438Z,100816.47
2023-05-11T22:31:31.839Z,100813.91
2023-05-11T22:34:19.566Z,100814.72
2023-05-11T22:37:04.892Z,100805.16
2023-05-11T22:39:50.052Z,100811.19
2023-05-11T22:42:35.651Z,100814.66
2023-05-11T22:45:20.976Z,100816.31
2023-05-11T22:48:06.584Z,100825.03
2023-05-11T22:50:51.565Z,100819.72
2023-05-11T22:53:36.419Z,100824.06
2023-05-11T22:56:21.409Z,100825.81
2023-05-11T22:59:06.179Z,100831.78
2023-05-11T23:01:51.108Z,100830.03
2023-05-11T23:04:36.450Z,100824.06
2023-05-11T23:07:21.340Z,100829.28
2023-05-11T23:10:06.699Z,100823.19
2023-05-11T23:12:51.714Z,100821.38
2023-05-11T23:15:37.190Z,100823.94
2023-05-11T23:18:22.846Z,100816.19
2023-05-11T23:21:08.289Z,100821.34
2023-05-11T23:23:53.762Z,100823.06
2023-05-11T23:26:38.798Z,100816.84
2023-05-11T23:29:24.496Z,100822.16
2023-05-11T23:32:09.604Z,100822.16
2023-05-11T23:34:54.495Z,100830.00
2023-05-11T23:37:39.316Z,100831.69
2023-05-11T23:40:25.123Z,100826.38
2023-05-11T23:43:10.703Z,100822.84
2023-05-11T23:45:55.563Z,100830.69
2023-05-11T23:48:40.975Z,100837.63
2023-05-11T23:51:26.208Z,100826.41
2023-05-11T23:54:11.608Z,100833.28
2023-05-11T23:56:57.057Z,100844.59
2023-05-11T23:59:42.428Z,100836.78
